createdAt,value
2023-04-29T00:01:15.333Z,1.42
2023-04-29T00:03:42.430Z,1.75
2023-04-29T00:06:11.530Z,1.10
2023-04-29T00:08:38.395Z,1.92
2023-04-29T00:11:05.373Z,1.10
2023-04-29T00:13:32.181Z,4.25
2023-04-29T00:15:58.923Z,0.95
2023-04-29T00:18:25.655Z,1.48
2023-04-29T00:20:52.385Z,1.13
2023-04-29T00:23:19.184Z,2.05
2023-04-29T00:25:45.873Z,2.17
2023-04-29T00:28:12.602Z,1.23
2023-04-29T00:30:39.309Z,1.10
2023-04-29T00:33:06.030Z,1.25
2023-04-29T00:35:32.803Z,1.67
2023-04-29T00:37:59.500Z,1.27
2023-04-29T00:40:28.397Z,1.70
2023-04-29T00:42:55.108Z,1.70
2023-04-29T00:45:22.162Z,1.35
2023-04-29T00:47:48.948Z,1.38
2023-04-29T00:50:15.835Z,1.15
2023-04-29T00:52:43.995Z,1.45
2023-04-29T00:55:14.822Z,1.40
2023-04-29T00:57:42.612Z,2.50
2023-04-29T01:00:10.263Z,1.10
2023-04-29T01:02:37.701Z,1.20
2023-04-29T01:05:04.891Z,3.63
2023-04-29T01:08:09.553Z,1.38
2023-04-29T01:10:44.496Z,1.40
2023-04-29T01:13:35.134Z,3.88
2023-04-29T01:16:11.488Z,1.75
2023-04-29T01:18:52.481Z,1.30
2023-04-29T01:21:20.144Z,1.48
2023-04-29T01:23:47.010Z,2.13
2023-04-29T01:26:14.654Z,2.75
2023-04-29T01:28:52.421Z,1.17
2023-04-29T01:31:29.567Z,1.30
2023-04-29T01:34:10.570Z,2.60
2023-04-29T01:36:51.938Z,1.77
2023-04-29T01:39:33.413Z,1.88
2023-04-29T01:42:15.776Z,1.40
2023-04-29T01:44:43.894Z,2.33
2023-04-29T01:47:13.993Z,1.55
2023-04-29T01:49:40.920Z,2.90
2023-04-29T01:52:07.658Z,2.10
2023-04-29T01:54:37.418Z,1.58
2023-04-29T01:57:04.474Z,1.40
2023-04-29T01:59:31.734Z,1.45
2023-04-29T02:01:58.946Z,1.60
2023-04-29T02:04:26.221Z,2.85
2023-04-29T02:06:52.952Z,1.92
2023-04-29T02:09:19.805Z,1.38
2023-04-29T02:11:46.520Z,3.45
2023-04-29T02:14:13.884Z,2.67
2023-04-29T02:16:40.714Z,1.88
2023-04-29T02:19:07.508Z,1.50
2023-04-29T02:21:35.292Z,1.80
2023-04-29T02:24:02.589Z,3.38
2023-04-29T02:26:29.439Z,1.50
2023-04-29T02:28:57.240Z,1.98
2023-04-29T02:31:24.136Z,2.60
2023-04-29T02:33:50.954Z,1.83
2023-04-29T02:36:18.351Z,2.65
2023-04-29T02:38:45.099Z,2.03
2023-04-29T02:41:17.029Z,1.80
2023-04-29T02:43:44.645Z,1.60
2023-04-29T02:46:11.840Z,1.63
2023-04-29T02:48:38.619Z,4.45
2023-04-29T02:51:05.641Z,1.73
2023-04-29T02:53:32.684Z,2.13
2023-04-29T02:55:59.495Z,1.60
2023-04-29T02:58:26.240Z,2.45
2023-04-29T03:00:53.180Z,1.88
2023-04-29T03:03:20.107Z,3.72
2023-04-29T03:05:46.964Z,1.95
2023-04-29T03:08:13.683Z,2.75
2023-04-29T03:10:41.751Z,1.58
2023-04-29T03:13:08.650Z,1.75
2023-04-29T03:15:35.427Z,2.25
2023-04-29T03:18:04.142Z,1.40
2023-04-29T03:20:32.898Z,1.98
2023-04-29T03:23:00.923Z,1.50
2023-04-29T03:25:28.651Z,1.80
2023-04-29T03:27:55.663Z,1.60
2023-04-29T03:30:22.462Z,1.90
2023-04-29T03:32:49.261Z,3.33
2023-04-29T03:35:16.195Z,2.95
2023-04-29T03:37:44.644Z,2.40
2023-04-29T03:40:12.481Z,2.80
2023-04-29T03:42:39.234Z,3.45
2023-04-29T03:45:06.970Z,3.05
2023-04-29T03:47:33.874Z,2.00
2023-04-29T03:50:00.653Z,1.90
2023-04-29T03:52:27.660Z,2.42
2023-04-29T03:54:54.381Z,2.90
2023-04-29T03:57:21.151Z,2.20
2023-04-29T03:59:50.752Z,2.13
2023-04-29T04:02:18.101Z,2.10
2023-04-29T04:04:45.248Z,2.75
2023-04-29T04:07:12.288Z,2.15
2023-04-29T04:09:39.124Z,2.08
2023-04-29T04:12:06.891Z,1.95
2023-04-29T04:14:34.469Z,1.98
2023-04-29T04:17:01.492Z,2.47
2023-04-29T04:19:29.278Z,3.30
2023-04-29T04:21:56.272Z,2.50
2023-04-29T04:24:23.517Z,2.10
2023-04-29T04:26:50.600Z,2.40
2023-04-29T04:29:17.459Z,2.22
2023-04-29T04:31:46.784Z,3.20
2023-04-29T04:34:13.867Z,3.70
2023-04-29T04:36:41.430Z,2.38
2023-04-29T04:39:08.434Z,2.65
2023-04-29T04:41:35.638Z,5.95
2023-04-29T04:44:03.129Z,2.70
2023-04-29T04:46:29.960Z,3.15
2023-04-29T04:48:56.799Z,3.47
2023-04-29T04:51:23.594Z,3.15
2023-04-29T04:53:50.394Z,4.28
2023-04-29T04:56:17.156Z,2.90
2023-04-29T04:58:44.312Z,3.25
2023-04-29T05:01:11.474Z,5.47
2023-04-29T05:03:38.333Z,2.97
2023-04-29T05:06:05.432Z,3.13
2023-04-29T05:08:32.210Z,3.42
2023-04-29T05:10:58.941Z,5.13
2023-04-29T05:13:25.958Z,3.85
2023-04-29T05:15:52.683Z,3.70
2023-04-29T05:18:19.531Z,5.95
2023-04-29T05:20:46.246Z,9.57
2023-04-29T05:23:12.939Z,10.35
2023-04-29T05:25:39.684Z,13.75
2023-04-29T05:28:07.421Z,11.60
2023-04-29T05:30:34.351Z,13.32
2023-04-29T05:33:01.651Z,16.40
2023-04-29T05:35:28.492Z,10.05
2023-04-29T05:37:55.393Z,11.07
2023-04-29T05:40:23.255Z,9.73
2023-04-29T05:42:50.120Z,7.82
2023-04-29T05:45:16.913Z,3.78
2023-04-29T05:47:43.668Z,2.30
2023-04-29T05:50:11.514Z,2.33
2023-04-29T05:52:39.184Z,2.72
2023-04-29T05:55:06.360Z,1.95
2023-04-29T05:57:33.143Z,6.20
2023-04-29T06:00:00.337Z,2.75
2023-04-29T06:02:27.660Z,1.63
2023-04-29T06:04:54.817Z,1.20
2023-04-29T06:07:22.331Z,1.30
2023-04-29T06:09:49.061Z,3.33
2023-04-29T06:12:15.783Z,1.20
2023-04-29T06:14:42.556Z,2.20
2023-04-29T06:17:09.294Z,3.17
2023-04-29T06:19:36.119Z,1.40
2023-04-29T06:22:02.849Z,1.50
2023-04-29T06:24:29.728Z,3.20
2023-04-29T06:26:56.456Z,3.58
2023-04-29T06:29:23.180Z,2.83
2023-04-29T06:31:49.956Z,1.90
2023-04-29T06:34:16.738Z,3.47
2023-04-29T06:36:43.444Z,1.63
2023-04-29T06:39:10.224Z,3.65
2023-04-29T06:41:36.992Z,2.40
2023-04-29T06:44:03.926Z,5.25
2023-04-29T06:46:30.945Z,2.30
2023-04-29T06:48:57.798Z,2.72
2023-04-29T06:51:25.030Z,2.42
2023-04-29T06:53:51.792Z,2.88
2023-04-29T06:56:18.814Z,2.80
2023-04-29T06:58:45.557Z,2.92
2023-04-29T07:01:12.580Z,8.02
2023-04-29T07:03:39.461Z,3.67
2023-04-29T07:06:06.582Z,3.85
2023-04-29T07:08:33.601Z,2.83
2023-04-29T07:11:00.433Z,3.53
2023-04-29T07:13:27.240Z,3.53
2023-04-29T07:15:54.264Z,4.13
2023-04-29T07:18:21.064Z,4.50
2023-04-29T07:20:48.201Z,4.35
2023-04-29T07:23:15.492Z,5.20
2023-04-29T07:25:42.235Z,3.17
2023-04-29T07:28:11.731Z,2.92
2023-04-29T07:30:38.659Z,3.07
2023-04-29T07:33:05.613Z,2.95
2023-04-29T07:35:32.403Z,4.05
2023-04-29T07:37:59.074Z,2.63
2023-04-29T07:40:26.289Z,4.70
2023-04-29T07:42:53.070Z,2.30
2023-04-29T07:45:19.888Z,4.35
2023-04-29T07:47:46.866Z,5.03
2023-04-29T07:50:13.858Z,5.70
2023-04-29T07:52:40.699Z,2.72
2023-04-29T07:55:07.818Z,3.13
2023-04-29T07:57:34.595Z,2.40
2023-04-29T08:00:01.354Z,3.03
2023-04-29T08:02:28.300Z,3.72
2023-04-29T08:04:56.249Z,2.65
2023-04-29T08:07:23.370Z,5.00
2023-04-29T08:09:50.118Z,4.35
2023-04-29T08:12:16.923Z,2.38
2023-04-29T08:14:43.678Z,3.80
2023-04-29T08:17:10.438Z,2.35
2023-04-29T08:19:37.176Z,3.92
2023-04-29T08:22:04.447Z,3.25
2023-04-29T08:24:33.470Z,3.08
2023-04-29T08:27:00.249Z,4.78
2023-04-29T08:29:27.023Z,3.65
2023-04-29T08:31:53.821Z,3.65
2023-04-29T08:34:20.553Z,4.30
2023-04-29T08:36:47.259Z,2.83
2023-04-29T08:39:14.048Z,2.83
2023-04-29T08:41:40.990Z,2.67
2023-04-29T08:44:07.704Z,4.00
2023-04-29T08:46:34.629Z,2.10
2023-04-29T08:49:04.072Z,3.28
2023-04-29T08:51:33.179Z,6.87
2023-04-29T08:54:00.136Z,7.15
2023-04-29T08:56:28.828Z,4.70
2023-04-29T08:58:58.916Z,2.53
2023-04-29T09:06:39.190Z,4.00
2023-04-29T09:09:07.062Z,2.60
2023-04-29T09:11:34.668Z,3.22
2023-04-29T09:14:02.582Z,4.47
2023-04-29T09:16:29.889Z,2.25
2023-04-29T09:18:56.982Z,1.98
2023-04-29T09:21:27.157Z,2.00
2023-04-29T09:26:25.344Z,2.90
2023-04-29T09:29:07.025Z,2.30
2023-04-29T09:31:33.756Z,3.55
2023-04-29T09:34:00.543Z,3.00
2023-04-29T09:36:48.034Z,3.15
2023-04-29T09:39:17.938Z,2.95
2023-04-29T09:41:53.507Z,5.32
2023-04-29T09:44:24.865Z,3.22
2023-04-29T09:47:18.089Z,1.75
2023-04-29T09:49:46.140Z,1.75
2023-04-29T09:52:16.387Z,3.38
2023-04-29T09:57:12.717Z,2.78
2023-04-29T09:59:41.633Z,1.52
2023-04-29T10:02:17.754Z,1.70
2023-04-29T10:04:54.067Z,5.47
2023-04-29T10:07:21.999Z,3.20
2023-04-29T10:09:49.160Z,3.05
2023-04-29T10:12:21.142Z,4.40
2023-04-29T10:15:03.782Z,2.63
2023-04-29T10:17:46.012Z,3.92
2023-04-29T10:20:22.186Z,2.83
2023-04-29T10:22:51.271Z,1.50
2023-04-29T10:25:20.020Z,3.25
2023-04-29T10:27:48.912Z,3.33
2023-04-29T10:30:18.063Z,2.38
2023-04-29T10:35:20.587Z,4.80
2023-04-29T10:37:48.996Z,3.65
2023-04-29T10:40:29.446Z,3.65
2023-04-29T10:42:56.811Z,3.03
2023-04-29T10:45:37.594Z,3.17
2023-04-29T10:48:08.764Z,2.38
2023-04-29T10:50:45.344Z,3.15
2023-04-29T10:53:22.123Z,3.67
2023-04-29T10:55:54.236Z,4.82
2023-04-29T10:58:45.102Z,3.60
2023-04-29T11:01:14.900Z,2.40
2023-04-29T11:03:48.732Z,2.38
2023-04-29T11:06:16.513Z,3.85
2023-04-29T11:08:43.457Z,3.00
2023-04-29T11:11:10.531Z,3.38
2023-04-29T11:13:41.128Z,5.10
2023-04-29T11:16:09.548Z,2.10
2023-04-29T11:19:06.699Z,4.90
2023-04-29T11:21:37.339Z,3.05
2023-04-29T11:24:06.455Z,2.53
2023-04-29T11:26:35.800Z,2.35
2023-04-29T11:29:02.682Z,2.25
2023-04-29T11:31:33.206Z,2.35
2023-04-29T11:34:00.772Z,2.38
2023-04-29T11:36:28.411Z,3.95
2023-04-29T11:38:55.961Z,1.58
2023-04-29T11:41:23.487Z,3.28
2023-04-29T11:44:01.052Z,3.10
2023-04-29T11:46:31.240Z,3.50
2023-04-29T11:48:59.984Z,3.67
2023-04-29T11:51:26.982Z,3.05
2023-04-29T11:53:53.945Z,1.58
2023-04-29T11:56:25.911Z,2.13
2023-04-29T11:58:56.892Z,2.05
2023-04-29T12:01:25.178Z,2.33
2023-04-29T12:03:52.167Z,3.05
2023-04-29T12:06:19.062Z,3.60
2023-04-29T12:08:47.436Z,2.00
2023-04-29T12:11:14.516Z,1.98
2023-04-29T12:13:41.479Z,2.28
2023-04-29T12:16:08.537Z,2.92
2023-04-29T12:18:35.430Z,3.15
2023-04-29T12:21:02.734Z,1.85
2023-04-29T12:23:29.749Z,1.40
2023-04-29T12:26:00.967Z,2.25
2023-04-29T12:28:27.762Z,3.00
2023-04-29T12:30:55.442Z,2.83
2023-04-29T12:33:23.063Z,2.67
2023-04-29T12:35:51.334Z,2.17
2023-04-29T12:38:28.658Z,1.60
2023-04-29T12:40:56.693Z,1.60
2023-04-29T12:43:31.095Z,3.00
2023-04-29T12:46:16.323Z,1.33
2023-04-29T12:48:46.012Z,5.65
2023-04-29T12:51:13.306Z,1.63
2023-04-29T12:53:40.068Z,3.20
2023-04-29T12:56:07.167Z,2.72
2023-04-29T12:58:36.808Z,3.08
2023-04-29T13:01:03.778Z,2.20
2023-04-29T13:03:30.894Z,4.68
2023-04-29T13:05:59.109Z,3.08
2023-04-29T13:08:25.885Z,1.33
2023-04-29T13:10:53.667Z,2.60
2023-04-29T13:13:20.709Z,2.42
2023-04-29T13:15:47.478Z,1.77
2023-04-29T13:18:14.164Z,1.75
2023-04-29T13:20:42.536Z,1.80
2023-04-29T13:23:10.214Z,2.00
2023-04-29T13:25:37.093Z,1.80
2023-04-29T13:28:05.528Z,1.30
2023-04-29T13:30:32.975Z,2.00
2023-04-29T13:33:07.940Z,2.08
2023-04-29T13:35:40.028Z,3.45
2023-04-29T13:38:07.061Z,2.92
2023-04-29T13:40:38.860Z,2.88
2023-04-29T13:43:09.493Z,1.55
2023-04-29T13:45:39.808Z,1.40
2023-04-29T13:48:26.264Z,2.42
2023-04-29T13:51:34.267Z,1.25
2023-04-29T13:59:23.193Z,1.35
2023-04-29T14:04:01.350Z,1.10
2023-04-29T14:06:28.499Z,2.13
2023-04-29T14:08:55.365Z,1.15
2023-04-29T14:11:22.081Z,1.67
2023-04-29T14:13:48.859Z,1.35
2023-04-29T14:16:16.981Z,2.05
2023-04-29T14:18:43.790Z,2.40
2023-04-29T14:21:11.442Z,1.38
2023-04-29T14:23:38.351Z,1.35
2023-04-29T14:26:23.008Z,4.50
2023-04-29T14:28:57.772Z,3.17
2023-04-29T14:31:25.793Z,2.67
2023-04-29T14:33:52.614Z,3.33
2023-04-29T14:36:19.412Z,2.97
2023-04-29T14:38:46.426Z,1.77
2023-04-29T14:41:13.232Z,1.83
2023-04-29T14:43:41.655Z,1.63
2023-04-29T14:46:09.132Z,2.58
2023-04-29T14:48:36.121Z,1.20
2023-04-29T14:51:02.927Z,1.33
2023-04-29T14:53:29.688Z,1.20
2023-04-29T14:55:56.473Z,1.20
2023-04-29T14:58:23.284Z,1.42
2023-04-29T15:00:50.999Z,1.95
2023-04-29T15:03:22.465Z,2.13
2023-04-29T15:05:50.697Z,3.85
2023-04-29T15:08:18.078Z,2.08
2023-04-29T15:10:48.047Z,2.08
2023-04-29T15:13:15.052Z,2.55
2023-04-29T15:15:41.969Z,1.50
2023-04-29T15:18:09.177Z,1.70
2023-04-29T15:20:37.007Z,1.40
2023-04-29T15:23:04.806Z,17.33
2023-04-29T15:25:34.430Z,2.10
2023-04-29T15:28:02.383Z,1.63
2023-04-29T15:30:29.305Z,2.45
2023-04-29T15:32:56.074Z,2.08
2023-04-29T15:35:23.211Z,1.60
2023-04-29T15:37:50.081Z,4.88
2023-04-29T15:40:17.481Z,1.52
2023-04-29T15:42:44.317Z,4.20
2023-04-29T15:45:11.608Z,1.55
2023-04-29T15:47:38.686Z,2.28
2023-04-29T15:50:06.138Z,3.72
2023-04-29T15:52:32.930Z,2.38
2023-04-29T15:54:59.691Z,2.53
2023-04-29T15:57:26.738Z,1.65
2023-04-29T15:59:53.667Z,2.08
2023-04-29T16:02:21.150Z,1.70
2023-04-29T16:04:48.161Z,1.63
2023-04-29T16:07:14.952Z,4.20
2023-04-29T16:09:41.868Z,1.80
2023-04-29T16:12:11.430Z,1.60
2023-04-29T16:14:38.358Z,1.83
2023-04-29T16:17:05.578Z,6.47
2023-04-29T16:19:35.122Z,3.08
2023-04-29T16:22:03.357Z,1.83
2023-04-29T16:24:30.169Z,2.17
2023-04-29T16:26:57.318Z,2.53
2023-04-29T16:29:24.174Z,5.65
2023-04-29T16:31:51.108Z,3.53
2023-04-29T16:34:18.083Z,1.73
2023-04-29T16:36:44.869Z,2.15
2023-04-29T16:39:11.618Z,3.13
2023-04-29T16:41:38.373Z,3.33
2023-04-29T16:44:05.280Z,2.00
2023-04-29T16:46:32.575Z,2.28
2023-04-29T16:49:00.635Z,3.97
2023-04-29T16:51:29.153Z,4.05
2023-04-29T16:53:55.981Z,6.38
2023-04-29T16:56:23.128Z,2.92
2023-04-29T16:58:49.936Z,3.53
2023-04-29T17:01:19.782Z,5.18
2023-04-29T17:03:47.783Z,2.40
2023-04-29T17:06:16.119Z,2.72
2023-04-29T17:08:44.534Z,2.65
2023-04-29T17:11:11.629Z,2.25
2023-04-29T17:13:38.430Z,3.00
2023-04-29T17:16:05.857Z,4.55
2023-04-29T17:18:32.652Z,2.38
2023-04-29T17:20:59.807Z,3.97
2023-04-29T17:23:26.549Z,2.08
2023-04-29T17:25:55.410Z,3.38
2023-04-29T17:28:23.212Z,3.15
2023-04-29T17:30:50.182Z,3.67
2023-04-29T17:33:17.504Z,3.85
2023-04-29T17:35:45.224Z,5.70
2023-04-29T17:38:12.457Z,3.53
2023-04-29T17:40:39.578Z,3.35
2023-04-29T17:43:06.437Z,4.35
2023-04-29T17:45:33.365Z,4.97
2023-04-29T17:48:00.633Z,3.78
2023-04-29T17:50:27.778Z,6.28
2023-04-29T17:52:54.590Z,3.35
2023-04-29T17:55:21.507Z,3.15
2023-04-29T17:57:48.592Z,3.20
2023-04-29T18:00:15.828Z,3.80
2023-04-29T18:02:42.682Z,5.50
2023-04-29T18:05:09.585Z,4.25
2023-04-29T18:07:36.325Z,5.78
2023-04-29T18:10:03.601Z,3.40
2023-04-29T18:12:30.374Z,7.22
2023-04-29T18:14:57.251Z,7.47
2023-04-29T18:17:24.041Z,5.00
2023-04-29T18:19:50.905Z,5.82
2023-04-29T18:22:17.687Z,4.15
2023-04-29T18:24:44.595Z,6.75
2023-04-29T18:27:11.684Z,7.55
2023-04-29T18:29:38.547Z,5.38
2023-04-29T18:34:46.553Z,5.32
2023-04-29T18:37:13.314Z,6.10
2023-04-29T18:39:40.148Z,5.47
2023-04-29T18:42:06.840Z,8.15
2023-04-29T18:44:33.624Z,8.63
2023-04-29T18:47:00.368Z,6.20
2023-04-29T18:49:27.384Z,6.53
2023-04-29T18:51:54.118Z,6.93
2023-04-29T18:54:20.931Z,6.63
2023-04-29T18:56:49.768Z,9.68
2023-04-29T18:59:19.603Z,8.10
2023-04-29T19:01:48.194Z,7.57
2023-04-29T19:04:15.742Z,11.20
2023-04-29T19:06:42.878Z,10.32
2023-04-29T19:09:11.216Z,12.43
2023-04-29T19:11:38.120Z,8.85
2023-04-29T19:14:04.969Z,10.73
2023-04-29T19:16:31.756Z,9.13
2023-04-29T19:18:58.794Z,17.23
2023-04-29T19:21:25.755Z,9.55
2023-04-29T19:23:52.603Z,10.13
2023-04-29T19:26:19.364Z,9.27
2023-04-29T19:28:46.394Z,8.95
2023-04-29T19:31:13.278Z,9.50
2023-04-29T19:33:39.999Z,13.82
2023-04-29T19:36:07.393Z,8.73
2023-04-29T19:38:34.620Z,7.75
2023-04-29T19:41:01.905Z,10.43
2023-04-29T19:43:29.063Z,6.50
2023-04-29T19:45:57.340Z,9.82
2023-04-29T19:48:24.118Z,6.55
2023-04-29T19:50:51.120Z,8.27
2023-04-29T19:53:18.445Z,6.85
2023-04-29T19:55:45.919Z,6.15
2023-04-29T19:58:13.677Z,7.68
2023-04-29T20:00:41.731Z,6.07
2023-04-29T20:03:09.193Z,6.03
2023-04-29T20:05:45.568Z,7.45
2023-04-29T20:08:14.201Z,8.10
2023-04-29T20:10:41.657Z,7.15
2023-04-29T20:13:08.483Z,5.50
2023-04-29T20:15:35.509Z,7.72
2023-04-29T20:18:03.607Z,8.55
2023-04-29T20:20:31.225Z,6.68
2023-04-29T20:23:00.388Z,6.07
2023-04-29T20:25:30.316Z,7.43
2023-04-29T20:28:00.095Z,8.48
2023-04-29T20:30:27.623Z,11.68
2023-04-29T20:32:55.076Z,9.18
2023-04-29T20:35:24.874Z,8.85
2023-04-29T20:37:51.957Z,8.20
2023-04-29T20:40:19.284Z,8.98
2023-04-29T20:42:47.074Z,11.38
2023-04-29T20:45:17.023Z,8.07
2023-04-29T20:47:44.358Z,6.68
2023-04-29T20:50:12.144Z,6.18
2023-04-29T20:52:38.998Z,5.78
2023-04-29T20:55:06.232Z,4.57
2023-04-29T20:57:42.266Z,5.20
2023-04-29T21:00:09.737Z,9.27
2023-04-29T21:02:36.955Z,11.45
2023-04-29T21:05:03.983Z,8.40
2023-04-29T21:07:30.892Z,8.20
2023-04-29T21:09:57.651Z,7.03
2023-04-29T21:12:24.913Z,7.55
2023-04-29T21:14:51.805Z,6.50
2023-04-29T21:17:18.605Z,7.07
2023-04-29T21:19:45.382Z,5.82
2023-04-29T21:22:12.234Z,10.20
2023-04-29T21:24:39.048Z,8.75
2023-04-29T21:27:06.265Z,11.07
2023-04-29T21:29:34.774Z,10.98
2023-04-29T21:32:01.549Z,7.60
2023-04-29T21:34:28.304Z,8.07
2023-04-29T21:36:55.083Z,7.85
2023-04-29T21:39:22.241Z,7.30
2023-04-29T21:41:49.404Z,7.10
2023-04-29T21:44:16.312Z,7.10
2023-04-29T21:46:43.445Z,5.97
2023-04-29T21:49:10.399Z,10.40
2023-04-29T21:51:37.851Z,13.52
2023-04-29T21:54:08.619Z,11.40
2023-04-29T21:56:38.635Z,9.52
2023-04-29T21:59:05.717Z,6.90
2023-04-29T22:02:01.772Z,10.65
2023-04-29T22:04:29.057Z,8.00
2023-04-29T22:07:04.863Z,7.28
2023-04-29T22:09:31.995Z,6.22
2023-04-29T22:12:21.340Z,9.35
2023-04-29T22:14:48.202Z,9.90
2023-04-29T22:17:15.026Z,5.80
2023-04-29T22:19:41.810Z,8.98
2023-04-29T22:22:08.891Z,9.25
2023-04-29T22:24:35.787Z,7.70
2023-04-29T22:27:03.527Z,8.32
2023-04-29T22:29:31.269Z,6.57
2023-04-29T22:31:58.219Z,8.85
2023-04-29T22:34:25.006Z,8.13
2023-04-29T22:36:51.781Z,8.02
2023-04-29T22:39:18.779Z,8.13
2023-04-29T22:41:45.689Z,7.82
2023-04-29T22:44:12.703Z,11.10
2023-04-29T22:46:39.470Z,9.93
2023-04-29T22:49:06.378Z,9.88
2023-04-29T22:51:33.188Z,10.02
2023-04-29T22:54:00.143Z,13.77
2023-04-29T22:56:28.940Z,9.82
2023-04-29T22:58:55.985Z,8.32
2023-04-29T23:01:22.879Z,7.57
2023-04-29T23:03:49.707Z,10.35
2023-04-29T23:06:16.660Z,7.82
2023-04-29T23:08:44.668Z,7.75
2023-04-29T23:11:12.150Z,8.38
2023-04-29T23:13:39.434Z,9.63
2023-04-29T23:16:08.570Z,9.95
2023-04-29T23:18:37.177Z,12.02
2023-04-29T23:21:04.135Z,9.52
2023-04-29T23:23:31.061Z,9.70
2023-04-29T23:25:57.848Z,10.68
2023-04-29T23:28:24.876Z,7.07
2023-04-29T23:30:51.763Z,7.03
2023-04-29T23:33:18.554Z,7.28
2023-04-29T23:35:52.767Z,8.02
2023-04-29T23:38:19.994Z,6.40
2023-04-29T23:40:47.312Z,6.75
2023-04-29T23:43:17.019Z,8.40
2023-04-29T23:45:45.292Z,9.65
2023-04-29T23:48:12.332Z,11.68
2023-04-29T23:50:39.146Z,7.90
2023-04-29T23:53:05.949Z,8.35
2023-04-29T23:55:33.060Z,9.38
2023-04-29T23:58:00.107Z,10.35
